createdAt,value
2023-09-10T00:01:45.568Z,10.41
2023-09-10T00:04:18.952Z,10.40
2023-09-10T00:06:52.151Z,10.40
2023-09-10T00:09:25.501Z,10.38
2023-09-10T00:11:59.132Z,10.35
2023-09-10T00:14:32.538Z,10.32
2023-09-10T00:17:06.186Z,10.29
2023-09-10T00:19:40.352Z,10.24
2023-09-10T00:22:13.643Z,10.22
2023-09-10T00:24:47.004Z,10.22
2023-09-10T00:27:20.517Z,10.21
2023-09-10T00:29:53.900Z,10.22
2023-09-10T00:32:27.517Z,10.25
2023-09-10T00:35:01.280Z,10.34
2023-09-10T00:37:36.131Z,10.46
2023-09-10T00:40:12.452Z,10.60
2023-09-10T00:42:46.200Z,10.74
2023-09-10T00:45:19.535Z,10.87
2023-09-10T00:47:53.473Z,11.01
2023-09-10T00:50:27.978Z,11.10
2023-09-10T00:53:03.968Z,11.17
2023-09-10T00:55:38.648Z,11.26
2023-09-10T00:58:12.098Z,11.33
2023-09-10T01:00:47.046Z,11.43
2023-09-10T01:03:24.590Z,11.49
2023-09-10T01:05:58.114Z,11.57
2023-09-10T01:08:31.417Z,11.62
2023-09-10T01:11:10.696Z,11.68
2023-09-10T01:13:48.284Z,11.75
2023-09-10T01:16:25.659Z,11.79
2023-09-10T01:19:01.723Z,11.82
2023-09-10T01:21:49.388Z,11.84
2023-09-10T01:27:08.732Z,12.02
2023-09-10T01:29:42.092Z,11.87
2023-09-10T01:32:19.179Z,11.97
2023-09-10T01:34:56.390Z,12.04
2023-09-10T01:37:33.256Z,12.09
2023-09-10T01:40:10.873Z,12.12
2023-09-10T01:42:49.574Z,12.16
2023-09-10T01:45:24.796Z,12.19
2023-09-10T01:47:58.473Z,12.23
2023-09-10T01:50:33.203Z,12.21
2023-09-10T01:53:06.727Z,12.22
2023-09-10T01:55:40.128Z,12.25
2023-09-10T01:58:14.330Z,12.26
2023-09-10T02:00:48.037Z,12.26
2023-09-10T02:03:21.567Z,12.25
2023-09-10T02:05:55.157Z,12.26
2023-09-10T02:08:28.450Z,12.23
2023-09-10T02:11:06.603Z,12.23
2023-09-10T02:13:40.641Z,12.23
2023-09-10T02:16:14.294Z,12.22
2023-09-10T02:18:47.727Z,12.19
2023-09-10T02:21:22.760Z,12.19
2023-09-10T02:23:56.031Z,12.21
2023-09-10T02:26:29.641Z,12.21
2023-09-10T02:29:03.321Z,12.22
2023-09-10T02:31:36.733Z,12.25
2023-09-10T02:34:10.132Z,12.26
2023-09-10T02:36:43.562Z,12.28
2023-09-10T02:39:16.915Z,12.30
2023-09-10T02:41:51.217Z,12.30
2023-09-10T02:44:24.734Z,12.29
2023-09-10T02:46:58.020Z,12.30
2023-09-10T02:49:31.814Z,12.30
2023-09-10T02:52:05.409Z,12.31
2023-09-10T02:54:38.820Z,12.33
2023-09-10T02:57:12.141Z,12.31
2023-09-10T02:59:45.913Z,12.33
2023-09-10T03:02:19.653Z,12.33
2023-09-10T03:04:53.184Z,12.34
2023-09-10T03:07:27.122Z,12.34
2023-09-10T03:10:01.017Z,12.36
2023-09-10T03:12:35.190Z,12.37
2023-09-10T03:15:10.002Z,12.42
2023-09-10T03:17:43.459Z,12.41
2023-09-10T03:20:17.186Z,12.44
2023-09-10T03:22:51.599Z,12.46
2023-09-10T03:25:24.875Z,12.49
2023-09-10T03:27:59.005Z,12.48
2023-09-10T03:30:32.416Z,12.49
2023-09-10T03:33:06.708Z,12.47
2023-09-10T03:35:40.197Z,12.49
2023-09-10T03:38:13.852Z,12.50
2023-09-10T03:40:50.286Z,12.53
2023-09-10T03:43:25.153Z,12.56
2023-09-10T03:45:58.909Z,12.58
2023-09-10T03:48:32.301Z,12.59
2023-09-10T03:51:06.196Z,12.63
2023-09-10T03:53:39.520Z,12.64
2023-09-10T03:56:14.680Z,12.68
2023-09-10T03:58:48.083Z,12.70
2023-09-10T04:01:21.438Z,12.74
2023-09-10T04:03:56.002Z,12.78
2023-09-10T04:06:29.312Z,12.81
2023-09-10T04:09:04.584Z,12.82
2023-09-10T04:11:37.842Z,12.81
2023-09-10T04:14:11.504Z,12.83
2023-09-10T04:16:44.938Z,12.86
2023-09-10T04:19:18.409Z,12.89
2023-09-10T04:21:51.928Z,12.94
2023-09-10T04:24:25.359Z,12.99
2023-09-10T04:26:58.880Z,12.98
2023-09-10T04:29:32.220Z,12.94
2023-09-10T04:32:06.540Z,12.98
2023-09-10T04:34:39.869Z,13.02
2023-09-10T04:37:13.277Z,13.06
2023-09-10T04:39:46.754Z,13.07
2023-09-10T04:42:20.123Z,13.06
2023-09-10T04:44:53.788Z,13.07
2023-09-10T04:47:27.385Z,13.08
2023-09-10T04:50:02.098Z,13.12
2023-09-10T04:52:36.352Z,13.18
2023-09-10T04:55:11.139Z,13.21
2023-09-10T04:57:44.465Z,13.22
2023-09-10T05:00:19.053Z,13.27
2023-09-10T05:02:52.918Z,13.28
2023-09-10T05:05:26.634Z,13.31
2023-09-10T05:08:00.220Z,13.32
2023-09-10T05:10:33.882Z,13.34
2023-09-10T05:13:07.652Z,13.32
2023-09-10T05:15:40.990Z,13.34
2023-09-10T05:18:16.037Z,13.35
2023-09-10T05:20:51.240Z,13.36
2023-09-10T05:23:25.428Z,13.40
2023-09-10T05:26:01.216Z,13.45
2023-09-10T05:28:34.732Z,13.49
2023-09-10T05:31:09.074Z,13.54
2023-09-10T05:33:44.203Z,13.62
2023-09-10T05:36:17.530Z,13.61
2023-09-10T05:38:51.572Z,13.65
2023-09-10T05:41:25.306Z,13.65
2023-09-10T05:43:58.733Z,13.67
2023-09-10T05:46:32.283Z,13.66
2023-09-10T05:49:05.854Z,13.69
2023-09-10T05:51:39.336Z,13.73
2023-09-10T05:54:13.835Z,13.76
2023-09-10T05:56:48.017Z,13.74
2023-09-10T05:59:24.596Z,13.79
2023-09-10T06:01:58.515Z,13.88
2023-09-10T06:04:33.656Z,13.95
2023-09-10T06:07:07.783Z,13.95
2023-09-10T06:09:41.613Z,13.92
2023-09-10T06:12:15.519Z,13.94
2023-09-10T06:14:49.005Z,13.98
2023-09-10T06:17:22.641Z,14.00
2023-09-10T06:19:57.438Z,14.08
2023-09-10T06:22:31.527Z,14.12
2023-09-10T06:25:05.009Z,14.21
2023-09-10T06:27:38.785Z,14.27
2023-09-10T06:30:13.901Z,14.30
2023-09-10T06:32:47.329Z,14.32
2023-09-10T06:35:20.699Z,14.29
2023-09-10T06:37:54.447Z,14.31
2023-09-10T06:40:30.529Z,14.38
2023-09-10T06:43:07.008Z,14.43
2023-09-10T06:45:44.955Z,14.43
2023-09-10T06:48:18.470Z,14.48
2023-09-10T06:50:52.092Z,14.50
2023-09-10T06:53:25.133Z,14.59
2023-09-10T06:55:58.800Z,14.70
2023-09-10T06:58:32.240Z,14.80
2023-09-10T07:01:10.362Z,14.85
2023-09-10T07:03:43.877Z,14.93
2023-09-10T07:06:17.264Z,14.98
2023-09-10T07:08:50.632Z,15.22
2023-09-10T07:11:24.237Z,15.34
2023-09-10T07:13:57.658Z,15.44
2023-09-10T07:16:31.100Z,15.46
2023-09-10T07:19:04.518Z,15.49
2023-09-10T07:21:37.887Z,15.55
2023-09-10T07:24:11.885Z,15.53
2023-09-10T07:26:46.354Z,15.48
2023-09-10T07:29:20.412Z,15.45
2023-09-10T07:31:54.148Z,15.60
2023-09-10T07:34:27.734Z,15.76
2023-09-10T07:37:00.824Z,16.00
2023-09-10T07:39:34.213Z,16.10
2023-09-10T07:42:08.264Z,16.13
2023-09-10T07:44:42.627Z,16.16
2023-09-10T07:47:15.987Z,16.31
2023-09-10T07:49:52.181Z,16.38
2023-09-10T07:52:25.962Z,16.45
2023-09-10T07:54:59.580Z,16.52
2023-09-10T07:57:34.717Z,16.70
2023-09-10T08:00:11.100Z,16.79
2023-09-10T08:02:47.247Z,16.75
2023-09-10T08:05:20.946Z,16.70
2023-09-10T08:07:56.700Z,16.73
2023-09-10T08:10:30.452Z,16.84
2023-09-10T08:13:07.880Z,16.97
2023-09-10T08:15:41.196Z,17.13
2023-09-10T08:18:17.518Z,17.18
2023-09-10T08:20:54.882Z,17.17
2023-09-10T08:23:28.423Z,17.30
2023-09-10T08:26:01.746Z,17.59
2023-09-10T08:28:35.352Z,18.59
2023-09-10T08:31:08.865Z,21.28
2023-09-10T08:33:42.266Z,24.54
2023-09-10T08:36:15.752Z,27.35
2023-09-10T08:38:49.134Z,29.49
2023-09-10T08:41:27.080Z,29.53
2023-09-10T08:44:01.372Z,29.86
2023-09-10T08:46:38.147Z,31.25
2023-09-10T08:49:17.385Z,32.75
2023-09-10T08:51:51.514Z,32.98
2023-09-10T08:54:25.109Z,31.99
2023-09-10T08:56:59.897Z,32.21
2023-09-10T08:59:34.259Z,32.58
2023-09-10T09:02:09.829Z,33.98
2023-09-10T09:04:43.340Z,35.12
2023-09-10T09:07:17.920Z,35.92
2023-09-10T09:09:54.207Z,36.94
2023-09-10T09:12:28.803Z,37.92
2023-09-10T09:15:04.338Z,38.44
2023-09-10T09:17:41.870Z,39.16
2023-09-10T09:20:16.846Z,39.94
2023-09-10T09:22:53.590Z,40.85
2023-09-10T09:25:26.870Z,41.31
2023-09-10T09:28:02.118Z,41.34
2023-09-10T09:30:35.625Z,41.03
2023-09-10T09:33:12.702Z,40.33
2023-09-10T09:35:48.268Z,38.26
2023-09-10T09:38:23.023Z,36.98
2023-09-10T09:40:56.797Z,37.92
2023-09-10T09:43:30.811Z,39.16
2023-09-10T09:46:05.266Z,39.25
2023-09-10T09:48:40.071Z,38.78
2023-09-10T09:51:14.964Z,39.20
2023-09-10T09:53:49.124Z,39.56
2023-09-10T09:56:25.931Z,40.09
2023-09-10T09:59:01.757Z,40.58
2023-09-10T10:01:38.115Z,41.10
2023-09-10T10:04:13.890Z,40.54
2023-09-10T10:06:49.849Z,39.40
2023-09-10T10:09:23.467Z,38.84
2023-09-10T10:11:57.663Z,39.21
2023-09-10T10:14:33.245Z,40.19
2023-09-10T10:17:08.699Z,40.67
2023-09-10T10:19:43.267Z,41.37
2023-09-10T10:22:17.100Z,41.81
2023-09-10T10:24:51.495Z,42.45
2023-09-10T10:27:27.420Z,42.88
2023-09-10T10:30:00.719Z,43.12
2023-09-10T10:32:40.270Z,41.42
2023-09-10T10:35:14.111Z,39.19
2023-09-10T10:37:53.355Z,39.38
2023-09-10T10:40:30.080Z,39.81
2023-09-10T10:43:06.228Z,39.55
2023-09-10T10:45:40.620Z,39.95
2023-09-10T10:48:17.058Z,40.73
2023-09-10T10:50:51.416Z,41.17
2023-09-10T10:53:26.463Z,41.50
2023-09-10T10:56:03.838Z,42.18
2023-09-10T10:58:39.401Z,42.71
2023-09-10T11:01:16.357Z,43.16
2023-09-10T11:03:50.678Z,43.52
2023-09-10T11:06:24.137Z,43.81
2023-09-10T11:08:57.546Z,43.84
2023-09-10T11:11:51.601Z,43.37
2023-09-10T11:14:25.949Z,42.66
2023-09-10T11:17:12.117Z,42.07
2023-09-10T11:19:49.041Z,41.70
2023-09-10T11:22:22.998Z,42.07
2023-09-10T11:25:07.414Z,42.59
2023-09-10T11:27:41.019Z,43.22
2023-09-10T11:30:16.673Z,43.36
2023-09-10T11:32:53.940Z,43.35
2023-09-10T11:35:28.563Z,43.19
2023-09-10T11:38:02.054Z,41.93
2023-09-10T11:40:35.770Z,41.54
2023-09-10T11:43:10.698Z,42.21
2023-09-10T11:45:44.016Z,42.90
2023-09-10T11:48:17.627Z,43.47
2023-09-10T11:50:52.489Z,43.46
2023-09-10T11:53:25.655Z,42.98
2023-09-10T11:56:00.485Z,42.63
2023-09-10T11:58:36.305Z,42.19
2023-09-10T12:01:10.842Z,41.62
2023-09-10T12:03:45.847Z,40.87
2023-09-10T12:06:19.316Z,40.05
2023-09-10T12:08:55.032Z,39.80
2023-09-10T12:11:30.615Z,39.16
2023-09-10T12:14:04.853Z,39.51
2023-09-10T12:16:38.544Z,40.13
2023-09-10T12:19:13.464Z,40.85
2023-09-10T12:21:47.291Z,41.43
2023-09-10T12:24:21.267Z,41.40
2023-09-10T12:26:55.815Z,40.29
2023-09-10T12:29:30.396Z,39.80
2023-09-10T12:32:04.480Z,39.35
2023-09-10T12:34:39.382Z,39.35
2023-09-10T12:37:17.190Z,39.65
2023-09-10T12:39:51.863Z,40.12
2023-09-10T12:42:26.097Z,40.66
2023-09-10T12:44:59.543Z,40.90
2023-09-10T12:47:34.686Z,40.11
2023-09-10T12:50:10.268Z,38.51
2023-09-10T12:52:45.960Z,37.71
2023-09-10T12:55:20.913Z,38.30
2023-09-10T12:57:58.032Z,39.16
2023-09-10T13:00:31.742Z,39.56
2023-09-10T13:03:05.999Z,39.73
2023-09-10T13:05:39.885Z,38.41
2023-09-10T13:08:14.466Z,38.06
2023-09-10T13:10:47.904Z,37.62
2023-09-10T13:13:21.479Z,37.20
2023-09-10T13:15:54.824Z,36.74
2023-09-10T13:18:28.620Z,36.81
2023-09-10T13:21:02.020Z,37.39
2023-09-10T13:23:35.313Z,38.17
2023-09-10T13:26:08.863Z,38.79
2023-09-10T13:28:42.692Z,39.10
2023-09-10T13:31:16.740Z,39.23
2023-09-10T13:33:51.896Z,39.21
2023-09-10T13:36:27.210Z,38.77
2023-09-10T13:39:00.771Z,38.30
2023-09-10T13:41:34.168Z,38.43
2023-09-10T13:44:09.180Z,38.30
2023-09-10T13:46:43.072Z,38.40
2023-09-10T13:49:17.024Z,37.82
2023-09-10T13:51:50.572Z,37.02
2023-09-10T13:54:23.849Z,36.86
2023-09-10T13:56:57.708Z,36.86
2023-09-10T13:59:31.446Z,36.37
2023-09-10T14:02:04.972Z,35.80
2023-09-10T14:04:38.302Z,36.07
2023-09-10T14:07:11.517Z,36.27
2023-09-10T14:09:45.048Z,36.45
2023-09-10T14:12:18.298Z,36.59
2023-09-10T14:14:54.621Z,36.33
2023-09-10T14:17:28.978Z,36.03
2023-09-10T14:20:02.963Z,35.67
2023-09-10T14:22:50.520Z,35.28
2023-09-10T14:25:24.178Z,35.16
2023-09-10T14:27:57.619Z,35.06
2023-09-10T14:30:31.559Z,34.98
2023-09-10T14:33:05.224Z,34.86
2023-09-10T14:35:38.604Z,34.57
2023-09-10T14:38:11.882Z,34.24
2023-09-10T14:40:45.144Z,34.02
2023-09-10T14:43:19.556Z,33.82
2023-09-10T14:45:53.028Z,33.54
2023-09-10T14:48:26.408Z,33.23
2023-09-10T14:50:59.703Z,32.89
2023-09-10T14:53:33.476Z,32.55
2023-09-10T14:56:07.474Z,32.26
2023-09-10T14:58:41.182Z,32.02
2023-09-10T15:01:14.726Z,31.62
2023-09-10T15:03:48.386Z,31.26
2023-09-10T15:06:21.936Z,30.92
2023-09-10T15:08:55.373Z,30.61
2023-09-10T15:11:28.868Z,30.27
2023-09-10T15:14:02.320Z,29.93
2023-09-10T15:16:35.601Z,29.72
2023-09-10T15:19:08.804Z,29.46
2023-09-10T15:21:42.084Z,29.21
2023-09-10T15:24:15.067Z,28.51
2023-09-10T15:26:48.385Z,27.82
2023-09-10T15:29:21.636Z,27.27
2023-09-10T15:31:55.134Z,26.27
2023-09-10T15:34:29.389Z,24.93
2023-09-10T15:37:02.943Z,24.05
2023-09-10T15:39:36.543Z,23.36
2023-09-10T15:42:10.145Z,22.77
2023-09-10T15:44:44.093Z,21.98
2023-09-10T15:47:17.353Z,21.23
2023-09-10T15:49:50.589Z,20.74
2023-09-10T15:52:24.191Z,20.44
2023-09-10T15:54:57.879Z,19.96
2023-09-10T15:57:31.155Z,19.54
2023-09-10T16:00:06.385Z,19.20
2023-09-10T16:02:41.772Z,18.86
2023-09-10T16:05:15.650Z,18.59
2023-09-10T16:07:49.678Z,18.38
2023-09-10T16:10:23.312Z,18.13
2023-09-10T16:12:56.518Z,17.78
2023-09-10T16:15:30.179Z,17.49
2023-09-10T16:18:03.634Z,17.24
2023-09-10T16:20:36.966Z,17.05
2023-09-10T16:23:10.638Z,16.81
2023-09-10T16:25:44.292Z,16.58
2023-09-10T16:28:18.035Z,16.36
2023-09-10T16:30:51.632Z,16.13
2023-09-10T16:33:25.253Z,15.94
2023-09-10T16:35:58.304Z,15.79
2023-09-10T16:38:31.599Z,15.67
2023-09-10T16:41:06.013Z,15.63
2023-09-10T16:43:39.848Z,15.57
2023-09-10T16:46:13.614Z,15.52
2023-09-10T16:48:47.080Z,15.49
2023-09-10T16:51:20.362Z,15.42
2023-09-10T16:53:53.749Z,15.40
2023-09-10T16:59:14.041Z,15.40
2023-09-10T17:01:50.665Z,15.20
2023-09-10T17:04:24.532Z,15.14
2023-09-10T17:07:00.089Z,15.06
2023-09-10T17:09:38.677Z,14.99
2023-09-10T17:12:15.190Z,14.92
2023-09-10T17:14:52.567Z,14.90
2023-09-10T17:17:30.794Z,14.86
2023-09-10T17:20:05.403Z,14.83
2023-09-10T17:22:38.685Z,14.78
2023-09-10T17:25:12.952Z,14.73
2023-09-10T17:27:46.208Z,14.64
2023-09-10T17:30:20.426Z,14.55
2023-09-10T17:32:55.432Z,14.50
2023-09-10T17:35:30.899Z,14.41
2023-09-10T17:38:13.347Z,14.36
2023-09-10T17:40:46.736Z,14.26
2023-09-10T17:43:21.738Z,14.19
2023-09-10T17:46:00.708Z,14.12
2023-09-10T17:48:45.756Z,14.08
2023-09-10T17:51:29.086Z,14.04
2023-09-10T17:54:03.483Z,13.99
2023-09-10T17:56:36.929Z,13.96
2023-09-10T17:59:14.018Z,13.92
2023-09-10T18:04:40.793Z,14.04
2023-09-10T18:07:14.507Z,13.94
2023-09-10T18:09:49.342Z,13.88
2023-09-10T18:12:23.680Z,13.86
2023-09-10T18:14:57.024Z,13.82
2023-09-10T18:17:31.190Z,13.83
2023-09-10T18:20:05.298Z,13.82
2023-09-10T18:22:38.747Z,13.79
2023-09-10T18:25:12.942Z,13.75
2023-09-10T18:27:46.436Z,13.72
2023-09-10T18:30:19.903Z,13.70
2023-09-10T18:32:53.243Z,13.70
2023-09-10T18:35:28.849Z,13.70
2023-09-10T18:38:02.506Z,13.70
2023-09-10T18:40:38.589Z,13.74
2023-09-10T18:43:14.873Z,13.80
2023-09-10T18:45:53.688Z,13.87
2023-09-10T18:48:27.030Z,13.87
2023-09-10T18:51:02.030Z,13.83
2023-09-10T18:53:35.409Z,13.80
2023-09-10T18:56:08.716Z,13.74
2023-09-10T18:58:42.367Z,13.69
2023-09-10T19:01:17.256Z,13.65
2023-09-10T19:03:51.082Z,13.61
2023-09-10T19:06:24.603Z,13.56
2023-09-10T19:08:57.949Z,13.50
2023-09-10T19:11:31.442Z,13.46
2023-09-10T19:14:05.047Z,13.44
2023-09-10T19:16:38.547Z,13.43
2023-09-10T19:19:12.539Z,13.40
2023-09-10T19:21:48.028Z,13.36
2023-09-10T19:24:21.262Z,13.35
2023-09-10T19:26:54.874Z,13.38
2023-09-10T19:29:28.180Z,13.39
2023-09-10T19:32:01.675Z,13.40
2023-09-10T19:34:35.091Z,13.36
2023-09-10T19:37:10.686Z,13.36
2023-09-10T19:39:44.363Z,13.38
2023-09-10T19:42:17.900Z,13.45
2023-09-10T19:44:51.291Z,13.43
2023-09-10T19:47:25.059Z,13.38
2023-09-10T19:49:58.682Z,13.37
2023-09-10T19:52:32.622Z,13.35
2023-09-10T19:55:09.836Z,13.37
2023-09-10T19:57:42.523Z,13.36
2023-09-10T20:00:16.997Z,13.36
2023-09-10T20:02:51.196Z,13.34
2023-09-10T20:05:24.803Z,13.32
2023-09-10T20:07:57.996Z,13.25
2023-09-10T20:10:31.429Z,13.30
2023-09-10T20:13:04.968Z,13.28
2023-09-10T20:15:38.544Z,13.25
2023-09-10T20:18:11.907Z,13.24
2023-09-10T20:20:45.484Z,13.26
2023-09-10T20:23:18.908Z,13.23
2023-09-10T20:25:54.250Z,13.23
2023-09-10T20:28:27.610Z,13.23
2023-09-10T20:31:01.262Z,13.28
2023-09-10T20:33:35.199Z,13.30
2023-09-10T20:36:10.285Z,13.32
2023-09-10T20:38:43.667Z,13.27
2023-09-10T20:41:18.547Z,13.17
2023-09-10T20:43:52.526Z,13.18
2023-09-10T20:46:29.268Z,13.16
2023-09-10T20:49:04.144Z,13.14
2023-09-10T20:51:37.824Z,13.13
2023-09-10T20:54:12.249Z,13.12
2023-09-10T20:56:45.819Z,13.09
2023-09-10T20:59:19.287Z,13.10
2023-09-10T21:01:53.041Z,13.09
2023-09-10T21:04:26.692Z,13.06
2023-09-10T21:07:01.883Z,13.02
2023-09-10T21:09:35.947Z,13.01
2023-09-10T21:12:13.576Z,12.99
2023-09-10T21:14:47.029Z,12.98
2023-09-10T21:17:21.205Z,12.96
2023-09-10T21:19:54.932Z,12.76
2023-09-10T21:22:29.625Z,12.97
2023-09-10T21:25:06.911Z,12.96
2023-09-10T21:27:40.673Z,12.95
2023-09-10T21:30:15.822Z,12.92
2023-09-10T21:32:52.511Z,12.91
2023-09-10T21:35:26.568Z,12.86
2023-09-10T21:38:00.494Z,12.82
2023-09-10T21:40:37.235Z,12.84
2023-09-10T21:43:10.387Z,12.86
2023-09-10T21:45:44.731Z,12.86
2023-09-10T21:48:18.554Z,12.86
2023-09-10T21:50:52.437Z,12.84
2023-09-10T21:53:25.976Z,12.81
2023-09-10T21:55:59.857Z,12.81
2023-09-10T21:58:33.869Z,12.81
2023-09-10T22:01:07.548Z,12.79
2023-09-10T22:03:44.411Z,12.75
2023-09-10T22:06:18.737Z,12.73
2023-09-10T22:08:52.162Z,12.70
2023-09-10T22:11:26.134Z,12.70
2023-09-10T22:14:00.930Z,12.69
2023-09-10T22:16:34.138Z,12.66
2023-09-10T22:19:09.294Z,12.62
2023-09-10T22:21:43.843Z,12.60
2023-09-10T22:24:17.160Z,12.58
2023-09-10T22:26:50.491Z,12.58
2023-09-10T22:29:24.126Z,12.56
2023-09-10T22:31:57.675Z,12.54
2023-09-10T22:34:33.889Z,12.52
2023-09-10T22:37:09.111Z,12.49
2023-09-10T22:39:42.615Z,12.50
2023-09-10T22:42:16.786Z,12.46
2023-09-10T22:44:50.174Z,12.46
2023-09-10T22:47:23.762Z,12.44
2023-09-10T22:49:57.061Z,12.40
2023-09-10T22:52:30.510Z,12.36
2023-09-10T22:55:04.758Z,12.30
2023-09-10T22:57:38.128Z,12.27
2023-09-10T23:00:13.613Z,12.24
2023-09-10T23:02:47.146Z,12.19
2023-09-10T23:05:20.889Z,12.16
2023-09-10T23:07:54.322Z,12.15
2023-09-10T23:10:27.808Z,12.15
2023-09-10T23:13:01.268Z,12.14
2023-09-10T23:15:34.529Z,12.10
2023-09-10T23:18:08.615Z,12.10
2023-09-10T23:20:42.047Z,12.07
2023-09-10T23:23:15.373Z,12.05
2023-09-10T23:25:48.808Z,12.03
2023-09-10T23:28:22.153Z,12.01
2023-09-10T23:30:55.552Z,12.00
2023-09-10T23:33:29.102Z,12.01
2023-09-10T23:36:03.119Z,12.00
2023-09-10T23:38:37.103Z,11.99
2023-09-10T23:41:10.253Z,11.99
2023-09-10T23:43:43.632Z,11.96
2023-09-10T23:46:17.163Z,11.93
2023-09-10T23:48:50.438Z,11.91
2023-09-10T23:51:23.601Z,11.87
2023-09-10T23:53:56.902Z,11.84
2023-09-10T23:56:30.321Z,11.82
2023-09-10T23:59:03.583Z,11.82
